Time;durP1;ratioP1;P1;durP2;ratioP2;P2;SDS_P1;SDS_P2;PMS_P1;PMS_P2;Temp;Humidity;BMP_temperature;BMP_pressure;BME280_temperature;BME280_humidity;BME280_pressure;Samples;Min_cycle;Max_cycle;Signal;HPM_P1;HPM_P2
2023/09/17 00:00:12;;;;;;;3.65;2.30;;;22.90;58.30;;;;;;2543097;53;20950;-71
2023/09/17 00:02:39;;;;;;;4.00;2.62;;;22.90;58.40;;;;;;2572844;53;21434;-71
2023/09/17 00:05:08;;;;;;;4.43;2.97;;;22.90;58.40;;;;;;2550398;53;21471;-68
2023/09/17 00:07:39;;;;;;;4.10;2.97;;;22.80;58.60;;;;;;2333135;54;20998;-71
2023/09/17 00:10:07;;;;;;;4.30;2.67;;;22.80;58.60;;;;;;2577713;53;21021;-70
2023/09/17 00:12:33;;;;;;;4.32;2.85;;;22.80;58.60;;;;;;2333169;54;21018;-69
2023/09/17 00:15:00;;;;;;;4.53;3.03;;;22.80;58.70;;;;;;2333429;55;20959;-71
2023/09/17 00:17:28;;;;;;;4.20;2.80;;;22.80;58.70;;;;;;2333698;54;20982;-68
2023/09/17 00:19:55;;;;;;;4.57;2.87;;;22.80;58.90;;;;;;2548290;53;20915;-70
2023/09/17 00:22:26;;;;;;;3.67;2.45;;;22.80;58.80;;;;;;2577273;53;21014;-69
2023/09/17 00:24:52;;;;;;;4.20;2.35;;;22.80;58.70;;;;;;2544544;53;21306;-69
2023/09/17 00:27:19;;;;;;;5.25;2.60;;;22.80;58.60;;;;;;2577031;53;20951;-70
2023/09/17 00:29:45;;;;;;;4.30;2.58;;;22.80;58.60;;;;;;2333625;55;21673;-69
2023/09/17 00:32:12;;;;;;;3.95;2.55;;;22.80;58.60;;;;;;2333208;55;20953;-71
2023/09/17 00:34:38;;;;;;;3.42;2.33;;;22.70;58.50;;;;;;2333543;54;21875;-70
2023/09/17 00:37:04;;;;;;;3.50;2.33;;;22.70;58.60;;;;;;2333174;55;21037;-71
2023/09/17 00:39:31;;;;;;;4.45;3.10;;;22.70;58.60;;;;;;2332975;55;21005;-69
2023/09/17 00:41:58;;;;;;;4.55;3.00;;;22.70;58.70;;;;;;2333582;54;20982;-70
2023/09/17 00:44:25;;;;;;;4.93;2.83;;;22.70;58.80;;;;;;2578066;53;21013;-70
2023/09/17 00:47:10;;;;;;;4.28;2.72;;;22.70;58.90;;;;;;2334567;54;21030;-71
2023/09/17 00:49:37;;;;;;;5.03;2.42;;;22.70;59.20;;;;;;2321854;55;20997;-70
2023/09/17 00:52:12;;;;;;;4.07;2.40;;;22.60;58.80;;;;;;2575280;53;20976;-70
2023/09/17 00:54:38;;;;;;;3.60;2.12;;;22.60;58.80;;;;;;2330147;54;21435;-70
2023/09/17 00:57:05;;;;;;;3.60;2.30;;;22.60;58.70;;;;;;2333757;55;21045;-69
2023/09/17 00:59:31;;;;;;;5.93;2.40;;;22.60;58.70;;;;;;2332646;54;20959;-70
2023/09/17 01:01:58;;;;;;;3.40;2.22;;;22.60;58.70;;;;;;2336997;55;20955;-71
2023/09/17 01:04:26;;;;;;;3.92;2.47;;;22.50;58.60;;;;;;2543622;53;21066;-70
2023/09/17 01:06:55;;;;;;;3.83;2.22;;;22.50;58.60;;;;;;2577100;53;20946;-71
2023/09/17 01:09:22;;;;;;;4.60;2.33;;;22.50;58.60;;;;;;2556632;53;20987;-70
2023/09/17 01:11:49;;;;;;;5.65;2.67;;;22.50;58.80;;;;;;2319300;54;21016;-69
2023/09/17 01:14:17;;;;;;;4.35;2.53;;;22.40;58.70;;;;;;2333079;55;21848;-71
2023/09/17 01:16:47;;;;;;;3.60;2.33;;;22.40;58.80;;;;;;2577490;53;21045;-68
2023/09/17 01:19:26;;;;;;;4.22;2.50;;;22.50;58.80;;;;;;2332814;54;20950;-70
2023/09/17 01:22:16;;;;;;;4.07;2.83;;;22.40;58.90;;;;;;2302167;54;21047;-71
2023/09/17 01:25:18;;;;;;;4.15;2.70;;;22.40;59.00;;;;;;2301678;54;21020;-70
2023/09/17 01:27:44;;;;;;;3.92;2.42;;;22.40;58.90;;;;;;2538781;54;21524;-70
2023/09/17 01:30:15;;;;;;;6.62;2.85;;;22.40;58.70;;;;;;2538077;54;21050;-69
2023/09/17 01:32:42;;;;;;;4.20;2.53;;;22.30;58.60;;;;;;2537998;54;20943;-69
2023/09/17 01:35:13;;;;;;;4.00;2.58;;;22.30;58.60;;;;;;2535076;54;20968;-69
2023/09/17 01:37:52;;;;;;;3.92;2.40;;;22.30;58.60;;;;;;2550105;53;20965;-71
2023/09/17 01:40:21;;;;;;;3.70;2.50;;;22.30;58.60;;;;;;2548861;53;20917;-70
2023/09/17 01:42:48;;;;;;;4.12;2.33;;;22.30;58.60;;;;;;2553522;53;20975;-70
2023/09/17 01:45:14;;;;;;;4.35;2.20;;;22.20;58.50;;;;;;2337077;54;21003;-70
2023/09/17 01:47:42;;;;;;;4.12;2.40;;;22.20;58.50;;;;;;2335910;54;20915;-70
2023/09/17 01:50:09;;;;;;;6.12;2.20;;;22.20;58.50;;;;;;2298326;54;21099;-70
2023/09/17 01:52:37;;;;;;;4.43;2.67;;;22.10;58.50;;;;;;2310800;54;21008;-69
2023/09/17 01:55:04;;;;;;;3.60;2.22;;;22.10;58.50;;;;;;2549964;53;21029;-70
2023/09/17 01:57:33;;;;;;;3.65;2.47;;;22.10;58.50;;;;;;2549047;53;20973;-70
2023/09/17 02:00:00;;;;;;;4.05;2.47;;;22.10;58.60;;;;;;2310200;54;20977;-70
2023/09/17 02:02:27;;;;;;;3.78;2.22;;;22.00;58.60;;;;;;2296027;54;21003;-67
2023/09/17 02:04:56;;;;;;;3.58;2.30;;;22.00;58.70;;;;;;2577374;53;21093;-70
2023/09/17 02:07:24;;;;;;;4.60;2.50;;;22.00;58.80;;;;;;2334172;55;21009;-67
2023/09/17 02:09:50;;;;;;;3.80;2.10;;;22.00;58.90;;;;;;2578100;53;21361;-68
2023/09/17 02:12:17;;;;;;;3.50;2.30;;;21.90;58.90;;;;;;2576838;53;20974;-70
2023/09/17 02:14:43;;;;;;;3.67;2.12;;;21.90;59.00;;;;;;2333516;55;21593;-69
2023/09/17 02:17:09;;;;;;;3.60;2.00;;;21.90;59.00;;;;;;2577732;53;21411;-69
2023/09/17 02:19:37;;;;;;;3.42;2.12;;;21.90;59.00;;;;;;2576586;53;21789;-70
2023/09/17 02:22:04;;;;;;;3.53;2.15;;;21.90;59.10;;;;;;2578122;53;20993;-69
2023/09/17 02:24:30;;;;;;;4.03;2.25;;;21.90;59.20;;;;;;2577850;53;20962;-69
2023/09/17 02:27:00;;;;;;;3.85;2.20;;;21.90;59.20;;;;;;2333167;54;21502;-67
2023/09/17 02:29:27;;;;;;;3.33;2.05;;;21.80;59.10;;;;;;2577401;53;20982;-68
2023/09/17 02:31:54;;;;;;;3.97;2.65;;;21.80;59.20;;;;;;2577592;53;21003;-69
2023/09/17 02:34:20;;;;;;;4.18;2.33;;;21.80;59.30;;;;;;2577072;53;20951;-69
2023/09/17 02:36:46;;;;;;;3.55;2.28;;;21.80;59.30;;;;;;2333083;55;21432;-69
2023/09/17 02:39:13;;;;;;;3.20;2.00;;;21.80;59.40;;;;;;2333241;55;20954;-70
2023/09/17 02:41:40;;;;;;;4.18;2.08;;;21.80;59.40;;;;;;2577219;53;20986;-71
2023/09/17 02:44:06;;;;;;;3.47;1.92;;;21.80;59.40;;;;;;2578029;53;21002;-70
2023/09/17 02:46:34;;;;;;;3.72;2.25;;;21.80;59.40;;;;;;2578013;53;21022;-71
2023/09/17 02:49:01;;;;;;;3.30;2.10;;;21.80;59.50;;;;;;2578037;53;21002;-70
2023/09/17 02:51:27;;;;;;;5.15;2.15;;;21.80;59.40;;;;;;2333827;54;21747;-67
2023/09/17 02:53:55;;;;;;;3.55;1.83;;;21.80;59.40;;;;;;2549847;54;20932;-69
2023/09/17 02:56:21;;;;;;;4.85;2.37;;;21.80;59.40;;;;;;2549632;54;20929;-70
2023/09/17 02:58:47;;;;;;;3.83;2.37;;;21.80;59.50;;;;;;2549646;54;20918;-70
2023/09/17 03:01:23;;;;;;;3.45;2.00;;;21.80;59.50;;;;;;2549691;54;20901;-68
2023/09/17 03:03:50;;;;;;;3.47;1.90;;;21.80;59.50;;;;;;2549507;54;20976;-70
2023/09/17 03:06:17;;;;;;;3.70;2.35;;;21.80;59.50;;;;;;2311126;55;20977;-70
2023/09/17 03:08:43;;;;;;;3.58;2.17;;;21.80;59.70;;;;;;2573083;53;20931;-70
2023/09/17 03:11:13;;;;;;;3.67;2.20;;;21.80;59.70;;;;;;2337589;55;20955;-71
2023/09/17 03:14:18;;;;;;;3.47;2.00;;;21.80;59.60;;;;;;2337988;55;21091;-69
2023/09/17 03:16:45;;;;;;;3.62;2.12;;;21.80;59.80;;;;;;2337155;55;20952;-69
2023/09/17 03:19:12;;;;;;;3.78;2.03;;;21.70;59.40;;;;;;2580649;53;20947;-70
2023/09/17 03:21:40;;;;;;;4.62;2.83;;;21.70;59.50;;;;;;2337090;54;21422;-71
2023/09/17 03:24:08;;;;;;;4.18;2.72;;;21.80;59.70;;;;;;2335952;54;20954;-70
2023/09/17 03:26:38;;;;;;;3.90;2.33;;;21.70;59.70;;;;;;2336537;54;21431;-70
2023/09/17 03:29:07;;;;;;;3.55;2.25;;;21.70;59.70;;;;;;2325278;54;20940;-68
2023/09/17 03:31:34;;;;;;;4.68;2.30;;;21.70;59.60;;;;;;2311215;54;21464;-70
2023/09/17 03:34:01;;;;;;;4.12;2.70;;;21.70;60.30;;;;;;2549830;53;20966;-70
2023/09/17 03:36:27;;;;;;;4.45;2.37;;;21.70;59.70;;;;;;2548937;53;20917;-70
2023/09/17 03:38:55;;;;;;;3.85;2.33;;;21.70;59.70;;;;;;2550161;53;21029;-70
2023/09/17 03:41:22;;;;;;;3.45;2.30;;;21.70;60.30;;;;;;2311306;55;21004;-69
2023/09/17 03:43:48;;;;;;;4.45;1.92;;;21.70;59.70;;;;;;2310751;55;20985;-72
2023/09/17 03:46:16;;;;;;;3.53;2.17;;;21.70;59.80;;;;;;2310301;55;20974;-69
2023/09/17 03:49:24;;;;;;;3.50;1.92;;;21.70;59.80;;;;;;2549093;53;20939;-69
2023/09/17 03:51:51;;;;;;;6.18;2.42;;;21.70;59.90;;;;;;2549920;53;20932;-70
2023/09/17 03:54:20;;;;;;;3.35;2.08;;;21.60;59.60;;;;;;2549983;53;20936;-69
2023/09/17 03:56:46;;;;;;;3.08;2.05;;;21.60;59.50;;;;;;2310367;54;20929;-69
2023/09/17 03:59:13;;;;;;;5.45;2.40;;;21.60;59.50;;;;;;2549466;54;20977;-68
2023/09/17 04:01:57;;;;;;;3.80;2.37;;;21.40;59.20;;;;;;2310256;55;20918;-69
2023/09/17 04:04:25;;;;;;;3.90;2.17;;;21.60;59.50;;;;;;2548333;53;20945;-69
2023/09/17 04:06:51;;;;;;;3.35;1.92;;;21.50;59.40;;;;;;2541695;54;20977;-69
2023/09/17 04:09:17;;;;;;;4.12;2.47;;;21.50;59.40;;;;;;2550038;53;20925;-71
2023/09/17 04:11:47;;;;;;;5.10;2.35;;;21.50;59.40;;;;;;2549890;53;21845;-69
2023/09/17 04:14:13;;;;;;;5.07;2.28;;;21.50;59.50;;;;;;2549089;53;21015;-71
2023/09/17 04:16:40;;;;;;;3.80;2.20;;;21.40;59.50;;;;;;2310630;55;21000;-71
2023/09/17 04:19:06;;;;;;;3.12;2.03;;;21.40;59.40;;;;;;2549831;53;21392;-70
2023/09/17 04:21:33;;;;;;;5.05;2.20;;;21.40;59.50;;;;;;2310892;55;20999;-70
2023/09/17 04:24:03;;;;;;;4.90;2.55;;;21.40;59.50;;;;;;2310445;55;20959;-70
2023/09/17 04:26:30;;;;;;;3.65;2.20;;;21.30;59.50;;;;;;2311354;55;21003;-71
2023/09/17 04:28:58;;;;;;;4.03;2.55;;;21.30;59.60;;;;;;2310621;54;20993;-67
2023/09/17 04:31:25;;;;;;;3.35;2.00;;;21.30;59.60;;;;;;2576900;53;25048;-69
2023/09/17 04:33:51;;;;;;;3.90;2.35;;;21.30;59.50;;;;;;2333667;55;20930;-69
2023/09/17 04:36:20;;;;;;;3.50;2.10;;;21.20;59.50;;;;;;2335275;55;21806;-70
2023/09/17 04:38:47;;;;;;;5.12;2.55;;;21.20;59.50;;;;;;2549360;53;20989;-71
2023/09/17 04:41:14;;;;;;;3.40;2.22;;;21.20;59.50;;;;;;2576633;53;21014;-70
2023/09/17 04:44:14;;;;;;;3.87;2.62;;;21.20;59.50;;;;;;2578587;53;20939;-71
2023/09/17 04:46:42;;;;;;;3.85;2.20;;;21.20;59.70;;;;;;2334011;54;21332;-71
2023/09/17 04:49:10;;;;;;;4.85;2.42;;;21.10;59.50;;;;;;2333923;55;20987;-69
2023/09/17 04:51:36;;;;;;;4.50;2.45;;;21.10;59.70;;;;;;2334380;55;20911;-69
2023/09/17 04:54:03;;;;;;;4.47;2.45;;;21.10;59.60;;;;;;2578057;53;20935;-70
2023/09/17 04:56:30;;;;;;;4.43;2.47;;;21.10;59.70;;;;;;2333515;54;21469;-70
2023/09/17 04:58:58;;;;;;;3.87;2.28;;;21.00;59.60;;;;;;2577435;53;21033;-69
2023/09/17 05:01:25;;;;;;;5.87;2.45;;;21.00;59.60;;;;;;2578054;53;20975;-70
2023/09/17 05:03:52;;;;;;;3.60;2.20;;;21.00;59.60;;;;;;2577605;53;20947;-70
2023/09/17 05:06:18;;;;;;;3.53;2.12;;;21.00;59.60;;;;;;2577327;53;21411;-70
2023/09/17 05:08:45;;;;;;;3.53;2.03;;;21.00;59.60;;;;;;2334406;55;21002;-68
2023/09/17 05:11:12;;;;;;;5.82;2.28;;;21.00;59.60;;;;;;2333448;55;20959;-70
2023/09/17 05:13:39;;;;;;;3.67;2.10;;;20.90;59.60;;;;;;2578285;53;21399;-71
2023/09/17 05:16:12;;;;;;;4.50;2.65;;;21.00;59.60;;;;;;2577628;53;22086;-69
2023/09/17 05:18:38;;;;;;;4.20;2.40;;;20.90;59.60;;;;;;2570109;53;21015;-70
2023/09/17 05:21:05;;;;;;;4.03;2.45;;;20.90;59.60;;;;;;2538620;54;20905;-71
2023/09/17 05:23:32;;;;;;;4.75;2.35;;;20.90;59.70;;;;;;2333665;55;20994;-70
2023/09/17 05:25:58;;;;;;;3.97;2.00;;;20.90;59.80;;;;;;2333267;55;20977;-69
2023/09/17 05:28:25;;;;;;;3.70;2.28;;;20.90;59.80;;;;;;2334030;54;21109;-70
2023/09/17 05:30:53;;;;;;;3.80;2.10;;;20.90;59.80;;;;;;2333287;55;20938;-69
2023/09/17 05:33:24;;;;;;;5.85;2.35;;;20.80;59.80;;;;;;2332440;55;21495;-68
2023/09/17 05:35:57;;;;;;;3.67;2.30;;;20.80;59.80;;;;;;2578018;53;20978;-69
2023/09/17 05:38:25;;;;;;;3.03;1.95;;;20.70;59.80;;;;;;2578497;53;20995;-69
2023/09/17 05:40:51;;;;;;;3.50;2.15;;;20.80;60.00;;;;;;2548924;53;20947;-69
2023/09/17 05:43:18;;;;;;;4.80;2.47;;;20.80;60.00;;;;;;2329351;54;20950;-71
2023/09/17 05:46:19;;;;;;;4.15;2.60;;;20.80;60.00;;;;;;2333369;55;21041;-69
2023/09/17 05:49:04;;;;;;;3.75;2.30;;;20.80;60.40;;;;;;2577233;53;20978;-70
2023/09/17 05:51:30;;;;;;;4.85;2.47;;;20.80;60.40;;;;;;2578158;53;21484;-69
2023/09/17 05:53:57;;;;;;;4.55;2.30;;;20.80;60.10;;;;;;2576745;53;20943;-67
2023/09/17 05:56:23;;;;;;;4.53;2.75;;;20.80;60.10;;;;;;2300405;55;2053950;-70
2023/09/17 05:58:49;;;;;;;5.12;2.72;;;20.80;60.30;;;;;;2577299;53;20974;-70
2023/09/17 06:01:16;;;;;;;3.60;2.10;;;20.80;60.40;;;;;;2577855;53;20986;-68
2023/09/17 06:03:42;;;;;;;3.70;2.20;;;20.80;60.50;;;;;;2577250;53;20934;-70
2023/09/17 06:06:10;;;;;;;3.85;2.15;;;20.80;60.60;;;;;;2577473;53;20968;-71
2023/09/17 06:08:39;;;;;;;3.30;2.08;;;20.80;60.50;;;;;;2554860;53;20931;-69
2023/09/17 06:11:05;;;;;;;3.80;2.10;;;20.80;60.50;;;;;;2538792;54;20949;-69
2023/09/17 06:13:35;;;;;;;3.35;2.15;;;20.80;60.50;;;;;;2578191;53;20990;-69
2023/09/17 06:16:02;;;;;;;3.35;1.87;;;20.80;60.50;;;;;;2577652;53;20926;-69
2023/09/17 06:18:32;;;;;;;3.25;1.87;;;20.90;60.70;;;;;;2332958;54;21345;-70
2023/09/17 06:20:59;;;;;;;3.10;1.87;;;20.90;60.70;;;;;;2576907;53;21031;-69
2023/09/17 06:23:27;;;;;;;3.33;1.98;;;20.90;60.80;;;;;;2333175;54;20954;-70
2023/09/17 06:25:54;;;;;;;3.47;2.03;;;20.90;61.50;;;;;;2578254;53;20927;-70
2023/09/17 06:28:21;;;;;;;3.30;2.10;;;20.90;61.00;;;;;;2544002;53;20955;-71
2023/09/17 06:30:48;;;;;;;3.85;2.10;;;21.00;61.20;;;;;;2578285;53;20966;-70
2023/09/17 06:33:15;;;;;;;3.80;2.17;;;21.00;61.30;;;;;;2577410;53;20985;-70
2023/09/17 06:35:41;;;;;;;4.47;2.47;;;21.00;61.30;;;;;;2324197;54;21034;-71
2023/09/17 06:38:07;;;;;;;4.57;2.90;;;21.10;61.50;;;;;;2561013;53;21824;-70
2023/09/17 06:40:34;;;;;;;3.78;2.40;;;21.10;61.60;;;;;;2577574;53;20986;-69
2023/09/17 06:43:00;;;;;;;3.78;2.20;;;21.10;61.70;;;;;;2577098;53;21060;-70
2023/09/17 06:45:27;;;;;;;3.67;2.37;;;21.20;61.90;;;;;;2333196;55;21472;-68
2023/09/17 06:47:56;;;;;;;3.58;2.30;;;21.20;61.90;;;;;;2575697;53;20947;-69
2023/09/17 06:50:22;;;;;;;4.50;2.40;;;21.30;62.10;;;;;;2576240;53;20991;-68
2023/09/17 06:52:49;;;;;;;4.72;2.47;;;21.40;62.20;;;;;;2558967;53;20987;-71
2023/09/17 06:55:16;;;;;;;4.05;2.53;;;21.40;62.20;;;;;;2563098;53;21460;-71
2023/09/17 06:57:43;;;;;;;3.55;2.42;;;21.50;62.40;;;;;;2577537;53;20939;-69
2023/09/17 07:00:14;;;;;;;4.53;2.62;;;21.50;62.50;;;;;;2577416;53;20946;-70
2023/09/17 07:02:40;;;;;;;3.70;2.37;;;21.60;62.60;;;;;;2334119;54;20950;-70
2023/09/17 07:05:10;;;;;;;4.10;2.45;;;21.70;62.70;;;;;;2333399;55;21537;-70
2023/09/17 07:07:37;;;;;;;3.78;2.10;;;21.70;62.70;;;;;;2576919;53;20978;-69
2023/09/17 07:10:08;;;;;;;3.95;2.65;;;21.80;62.70;;;;;;2577344;53;20915;-69
2023/09/17 07:12:38;;;;;;;4.32;2.45;;;21.90;62.90;;;;;;2578533;53;20950;-69
2023/09/17 07:15:10;;;;;;;3.47;2.30;;;22.00;63.00;;;;;;2334484;55;20938;-71
2023/09/17 07:17:36;;;;;;;;;;;22.00;63.00;;;;;;2336007;55;21007;-69
2023/09/17 07:20:04;;;;;;;3.80;2.45;;;22.10;63.10;;;;;;2312969;54;20055;-68
2023/09/17 07:22:31;;;;;;;3.58;2.53;;;22.20;62.80;;;;;;2333888;54;20930;-69
2023/09/17 07:24:58;;;;;;;3.87;2.62;;;22.30;63.00;;;;;;2333374;54;20997;-70
2023/09/17 07:27:29;;;;;;;3.30;2.03;;;22.30;63.00;;;;;;2577844;53;20951;-71
2023/09/17 07:29:56;;;;;;;5.62;2.17;;;22.40;63.10;;;;;;2558921;53;21439;-70
2023/09/17 07:32:27;;;;;;;4.20;2.47;;;22.50;63.00;;;;;;2565311;53;20998;-72
2023/09/17 07:34:53;;;;;;;3.87;1.98;;;22.50;63.00;;;;;;2334293;54;21770;-72
2023/09/17 07:37:20;;;;;;;4.18;2.62;;;22.60;63.00;;;;;;2577522;53;21014;-70
2023/09/17 07:39:47;;;;;;;3.92;2.37;;;22.60;63.00;;;;;;2578278;53;20993;-69
2023/09/17 07:42:17;;;;;;;3.65;2.35;;;22.70;63.10;;;;;;2577470;53;20994;-70
2023/09/17 07:44:45;;;;;;;3.40;2.10;;;22.80;63.10;;;;;;2578288;53;20951;-69
2023/09/17 07:47:12;;;;;;;3.80;2.37;;;22.90;63.10;;;;;;2577669;53;21796;-69
2023/09/17 07:49:38;;;;;;;6.97;2.85;;;23.00;63.10;;;;;;2577410;53;20938;-70
2023/09/17 07:52:06;;;;;;;3.70;2.17;;;23.00;63.20;;;;;;2577613;53;20974;-71
2023/09/17 07:54:37;;;;;;;5.57;2.50;;;23.10;63.20;;;;;;2576721;53;21549;-71
2023/09/17 07:57:04;;;;;;;3.62;2.28;;;23.20;63.30;;;;;;2578301;53;21720;-72
2023/09/17 07:59:30;;;;;;;3.30;2.10;;;23.20;63.10;;;;;;2576533;53;22009;-70
2023/09/17 08:01:58;;;;;;;3.80;2.30;;;23.30;63.20;;;;;;2332860;55;20943;-70
2023/09/17 08:04:25;;;;;;;3.67;2.42;;;23.40;63.20;;;;;;2577926;53;21311;-71
2023/09/17 08:06:51;;;;;;;4.10;2.42;;;23.50;63.20;;;;;;2334033;55;21002;-69
2023/09/17 08:09:18;;;;;;;4.00;2.50;;;23.50;63.20;;;;;;2333046;54;20963;-70
2023/09/17 08:11:44;;;;;;;3.60;2.28;;;23.60;63.10;;;;;;2578431;53;21034;-71
2023/09/17 08:14:11;;;;;;;3.30;1.92;;;23.70;63.20;;;;;;2320159;54;21524;-71
2023/09/17 08:16:38;;;;;;;4.70;2.33;;;23.80;63.40;;;;;;2568990;53;20975;-69
2023/09/17 08:19:04;;;;;;;3.50;2.30;;;23.90;63.50;;;;;;2577183;53;20931;-72
2023/09/17 08:21:31;;;;;;;4.78;2.40;;;24.00;63.60;;;;;;2577451;53;21589;-71
2023/09/17 08:24:05;;;;;;;4.03;2.47;;;24.10;63.60;;;;;;2550519;53;21742;-70
2023/09/17 08:26:31;;;;;;;3.35;2.15;;;24.10;63.60;;;;;;2575140;53;22090;-70
2023/09/17 08:29:00;;;;;;;3.40;2.33;;;24.20;63.50;;;;;;2333650;54;20923;-71
2023/09/17 08:31:28;;;;;;;4.20;2.42;;;24.30;63.50;;;;;;2334413;54;21711;-73
2023/09/17 08:33:54;;;;;;;3.30;2.15;;;24.40;63.50;;;;;;2331677;55;20942;-73
2023/09/17 08:36:23;;;;;;;4.03;2.47;;;24.50;63.50;;;;;;2577263;53;20943;-71
2023/09/17 08:38:50;;;;;;;3.70;2.50;;;24.60;63.60;;;;;;2576063;53;20982;-70
2023/09/17 08:41:22;;;;;;;3.25;2.00;;;24.60;63.50;;;;;;2573166;53;20960;-69
2023/09/17 08:43:53;;;;;;;4.00;2.40;;;24.80;63.60;;;;;;2328144;54;21726;-68
2023/09/17 08:46:21;;;;;;;4.00;2.37;;;24.90;63.50;;;;;;2572330;53;21351;-70
2023/09/17 08:48:48;;;;;;;4.20;2.67;;;25.00;63.50;;;;;;2328346;54;21563;-70
2023/09/17 08:51:23;;;;;;;5.10;2.10;;;25.10;63.50;;;;;;2573026;53;20977;-71
2023/09/17 08:54:25;;;;;;;4.45;2.12;;;25.20;63.50;;;;;;2330135;55;20939;-70
2023/09/17 08:56:55;;;;;;;3.95;2.10;;;25.30;63.40;;;;;;2327553;55;20954;-71
2023/09/17 08:59:30;;;;;;;3.95;2.62;;;25.40;63.30;;;;;;2326896;55;20958;-71
2023/09/17 09:01:57;;;;;;;4.10;2.55;;;25.50;63.20;;;;;;2328401;55;21002;-71
2023/09/17 09:04:23;;;;;;;4.45;2.53;;;25.70;63.40;;;;;;2571003;53;20931;-72
2023/09/17 09:06:50;;;;;;;4.03;2.25;;;25.70;63.40;;;;;;2571432;53;20939;-69
2023/09/17 09:09:22;;;;;;;3.00;1.77;;;25.80;63.20;;;;;;2570977;53;20954;-68
2023/09/17 09:11:49;;;;;;;3.58;2.05;;;26.00;63.10;;;;;;2328398;55;21569;-71
2023/09/17 09:14:16;;;;;;;3.40;1.90;;;26.10;63.00;;;;;;2328762;55;21498;-70
2023/09/17 09:16:45;;;;;;;3.00;1.50;;;26.20;63.00;;;;;;2308489;55;21475;-71
2023/09/17 09:19:11;;;;;;;3.35;1.90;;;26.30;62.80;;;;;;2569063;53;21430;-75
2023/09/17 09:21:37;;;;;;;3.00;1.90;;;26.40;62.80;;;;;;2550400;53;21916;-71
2023/09/17 09:24:05;;;;;;;3.20;1.30;;;26.50;62.80;;;;;;2332188;55;20974;-71
2023/09/17 09:26:35;;;;;;;3.28;1.83;;;26.60;62.30;;;;;;2574074;53;20950;-71
2023/09/17 09:29:03;;;;;;;3.25;1.92;;;26.80;62.00;;;;;;2572912;53;21416;-70
2023/09/17 09:31:33;;;;;;;4.18;1.90;;;26.90;61.90;;;;;;2329315;55;21317;-69
2023/09/17 09:34:00;;;;;;;3.53;1.92;;;27.00;61.90;;;;;;2329522;55;21010;-70
2023/09/17 09:36:28;;;;;;;3.40;1.75;;;27.20;61.90;;;;;;2573793;53;20998;-71
2023/09/17 09:39:06;;;;;;;3.67;1.90;;;27.30;61.30;;;;;;2329286;55;20954;-71
2023/09/17 09:41:35;;;;;;;4.18;1.87;;;27.40;60.80;;;;;;2329287;55;21467;-71
2023/09/17 09:44:04;;;;;;;4.37;1.75;;;27.50;60.80;;;;;;2557309;53;20968;-70
2023/09/17 09:46:32;;;;;;;3.87;1.80;;;27.70;60.80;;;;;;2539548;53;21058;-71
2023/09/17 09:49:02;;;;;;;4.20;2.00;;;27.80;60.40;;;;;;2540644;53;21787;-68
2023/09/17 09:51:30;;;;;;;4.53;1.90;;;27.90;60.30;;;;;;2327881;54;20951;-68
2023/09/17 09:53:57;;;;;;;3.20;1.55;;;28.00;59.90;;;;;;2326451;55;21506;-71
2023/09/17 09:56:28;;;;;;;3.30;1.85;;;28.10;59.70;;;;;;2571777;53;20978;-71
2023/09/17 09:58:55;;;;;;;3.10;1.40;;;28.20;59.40;;;;;;2573464;53;20986;-69
2023/09/17 10:01:22;;;;;;;3.37;1.50;;;28.30;59.40;;;;;;2328703;55;20947;-71
2023/09/17 10:03:50;;;;;;;3.00;1.42;;;28.40;59.30;;;;;;2572790;53;21396;-70
2023/09/17 10:06:16;;;;;;;3.60;1.65;;;28.50;59.10;;;;;;2572457;53;21141;-70
2023/09/17 10:08:47;;;;;;;5.30;1.77;;;28.60;59.00;;;;;;2330066;55;20986;-70
2023/09/17 10:11:15;;;;;;;3.20;1.20;;;28.70;58.80;;;;;;2572392;53;20958;-68
2023/09/17 10:13:42;;;;;;;4.15;1.40;;;28.80;58.40;;;;;;2565337;53;21055;-70
2023/09/17 10:16:12;;;;;;;4.18;1.62;;;28.90;58.10;;;;;;2305840;54;21050;-71
2023/09/17 10:18:42;;;;;;;3.67;1.50;;;29.00;57.70;;;;;;2305650;54;20935;-70
2023/09/17 10:21:09;;;;;;;3.37;1.50;;;29.10;57.50;;;;;;2569308;53;20982;-70
2023/09/17 10:23:35;;;;;;;3.65;1.50;;;29.20;57.20;;;;;;2573376;53;21073;-69
2023/09/17 10:26:05;;;;;;;3.92;1.45;;;29.30;57.10;;;;;;2329036;55;21078;-69
2023/09/17 10:28:34;;;;;;;5.32;1.58;;;29.40;57.00;;;;;;2569195;53;20942;-71
2023/09/17 10:31:04;;;;;;;2.70;1.25;;;29.50;56.90;;;;;;2541374;53;21764;-68
2023/09/17 10:33:32;;;;;;;2.60;1.27;;;29.60;56.80;;;;;;2543679;53;20994;-70
2023/09/17 10:36:05;;;;;;;2.80;1.40;;;29.60;56.50;;;;;;2573864;53;20943;-70
2023/09/17 10:38:34;;;;;;;3.80;1.33;;;29.70;56.40;;;;;;2573647;53;21002;-71
2023/09/17 10:41:02;;;;;;;3.15;1.40;;;29.80;56.20;;;;;;2329577;55;20939;-69
2023/09/17 10:43:35;;;;;;;3.05;1.60;;;29.90;56.10;;;;;;2332077;55;21090;-69
2023/09/17 10:46:06;;;;;;;2.72;1.30;;;29.90;55.60;;;;;;2548232;53;21011;-72
2023/09/17 10:48:33;;;;;;;3.55;1.50;;;30.00;55.30;;;;;;2571641;53;20939;-70
2023/09/17 10:51:00;;;;;;;4.03;1.77;;;30.10;55.00;;;;;;2549515;53;21079;-69
2023/09/17 10:53:29;;;;;;;2.45;1.10;;;30.10;54.90;;;;;;2537498;53;20973;-70
2023/09/17 10:56:08;;;;;;;2.17;1.00;;;30.20;54.70;;;;;;2331879;55;20995;-68
2023/09/17 10:58:38;;;;;;;2.75;1.35;;;30.20;54.20;;;;;;2576263;53;20955;-70
2023/09/17 11:01:07;;;;;;;3.22;1.25;;;30.30;54.60;;;;;;2332032;55;22013;-70
2023/09/17 11:03:35;;;;;;;2.70;1.42;;;30.30;54.30;;;;;;2331714;55;21932;-69
2023/09/17 11:06:02;;;;;;;3.87;1.30;;;30.50;54.40;;;;;;2332087;55;20998;-70
2023/09/17 11:08:29;;;;;;;3.42;1.10;;;30.50;54.10;;;;;;2326752;54;21773;-71
2023/09/17 11:10:55;;;;;;;2.80;1.10;;;30.60;53.90;;;;;;2313640;55;20954;-70
2023/09/17 11:13:23;;;;;;;2.47;0.98;;;30.70;53.60;;;;;;2331314;55;20967;-71
2023/09/17 11:15:56;;;;;;;3.97;1.10;;;30.70;53.30;;;;;;2564107;53;20984;-69
2023/09/17 11:18:26;;;;;;;3.83;1.20;;;30.80;52.70;;;;;;2312458;54;21048;-69
2023/09/17 11:21:00;;;;;;;2.92;1.20;;;30.90;52.80;;;;;;2335874;55;21114;-70
2023/09/17 11:24:28;;;;;;;3.40;1.30;;;30.90;52.50;;;;;;2580279;53;20955;-70
2023/09/17 11:26:57;;;;;;;4.22;1.05;;;31.00;52.20;;;;;;2336009;54;20996;-71
2023/09/17 11:29:41;;;;;;;1.98;1.02;;;31.10;52.20;;;;;;2334108;55;20916;-69
2023/09/17 11:32:08;;;;;;;2.08;1.08;;;31.10;51.60;;;;;;2549567;53;20972;-71
2023/09/17 11:34:36;;;;;;;3.70;1.35;;;31.20;52.10;;;;;;2300255;54;21456;-69
2023/09/17 11:37:04;;;;;;;2.47;1.10;;;31.30;51.90;;;;;;2531540;54;20975;-69
2023/09/17 11:39:35;;;;;;;3.17;1.20;;;31.30;51.60;;;;;;2314682;54;20983;-68
2023/09/17 11:42:03;;;;;;;3.30;1.23;;;31.40;51.20;;;;;;2580236;53;21404;-71
2023/09/17 11:44:33;;;;;;;2.42;1.10;;;31.50;51.40;;;;;;2579315;53;20936;-71
2023/09/17 11:47:00;;;;;;;2.53;0.90;;;31.50;51.30;;;;;;2559785;53;21013;-68
2023/09/17 11:49:28;;;;;;;2.47;0.93;;;31.50;51.20;;;;;;2308367;55;20897;-70
2023/09/17 11:52:00;;;;;;;2.33;0.88;;;31.60;51.00;;;;;;2548229;53;21791;-69
2023/09/17 11:54:38;;;;;;;2.55;1.02;;;31.70;50.70;;;;;;2547186;53;21008;-69
2023/09/17 11:57:04;;;;;;;2.25;0.82;;;31.80;50.70;;;;;;2547897;54;20921;-71
2023/09/17 11:59:37;;;;;;;1.58;0.77;;;31.80;50.50;;;;;;2307955;54;21485;-69
2023/09/17 12:02:05;;;;;;;2.70;0.90;;;31.80;49.90;;;;;;2543731;53;21016;-69
2023/09/17 12:04:35;;;;;;;2.72;0.90;;;31.90;50.00;;;;;;2294855;54;21429;-70
2023/09/17 12:07:07;;;;;;;1.62;0.77;;;31.90;49.80;;;;;;2309083;54;20920;-68
2023/09/17 12:09:49;;;;;;;2.80;0.93;;;32.00;49.50;;;;;;2547307;53;21015;-72
2023/09/17 12:12:21;;;;;;;4.45;0.80;;;32.00;49.30;;;;;;2547888;53;20969;-69
2023/09/17 12:14:49;;;;;;;3.03;1.15;;;32.00;49.20;;;;;;2309077;55;21057;-70
2023/09/17 12:17:16;;;;;;;2.83;1.05;;;32.00;49.30;;;;;;2310870;54;21020;-70
2023/09/17 12:19:43;;;;;;;2.70;0.80;;;32.10;49.20;;;;;;2529936;53;21008;-70
2023/09/17 12:22:09;;;;;;;2.78;1.10;;;32.10;49.00;;;;;;2297102;54;20964;-70
2023/09/17 12:24:37;;;;;;;2.80;1.20;;;32.20;48.70;;;;;;2308329;54;20936;-70
2023/09/17 12:27:34;;;;;;;3.08;1.12;;;32.20;48.60;;;;;;2308236;54;20951;-69
2023/09/17 12:30:05;;;;;;;3.08;1.10;;;32.20;48.40;;;;;;2545240;53;21001;-70
2023/09/17 12:32:34;;;;;;;2.15;0.90;;;32.30;48.60;;;;;;2325417;54;20952;-70
2023/09/17 12:35:00;;;;;;;2.95;1.05;;;32.20;48.50;;;;;;2338025;54;20953;-69
2023/09/17 12:37:28;;;;;;;2.53;0.90;;;32.30;48.50;;;;;;2582548;53;21221;-69
2023/09/17 12:39:55;;;;;;;3.62;1.10;;;32.30;48.30;;;;;;2324538;54;20967;-70
2023/09/17 12:42:27;;;;;;;2.22;0.80;;;32.30;48.10;;;;;;2330323;54;20987;-71
2023/09/17 12:45:02;;;;;;;2.75;0.70;;;32.40;47.70;;;;;;2337198;55;21618;-68
2023/09/17 12:47:29;;;;;;;3.25;1.12;;;32.40;48.00;;;;;;2559780;53;20936;-68
2023/09/17 12:49:56;;;;;;;2.35;0.90;;;32.40;47.80;;;;;;2583829;53;20992;-72
2023/09/17 12:52:25;;;;;;;3.60;1.10;;;32.40;47.50;;;;;;2336608;54;20980;-69
2023/09/17 12:54:53;;;;;;;2.08;0.88;;;32.50;47.20;;;;;;2336933;55;21100;-70
2023/09/17 12:57:22;;;;;;;4.95;1.27;;;32.50;47.40;;;;;;2550336;53;21007;-69